createdAt,value
2022-09-12T03:46:06.606Z,74.50
2022-09-12T03:49:10.748Z,74.50
2022-09-12T03:52:13.153Z,75.42
2022-09-12T03:55:16.405Z,75.41
2022-09-12T03:58:18.797Z,75.57
2022-09-12T04:01:21.909Z,76.06
2022-09-12T04:04:24.617Z,75.14
2022-09-12T04:07:27.519Z,75.19
2022-09-12T04:10:32.282Z,75.55
2022-09-12T04:13:35.746Z,75.06
2022-09-12T04:16:38.616Z,74.50
2022-09-12T04:19:41.034Z,74.39
2022-09-12T04:22:43.563Z,73.95
2022-09-12T04:25:54.519Z,73.92
2022-09-12T04:28:57.642Z,73.58
2022-09-12T04:31:59.943Z,73.00
2022-09-12T04:35:02.791Z,73.21
2022-09-12T04:38:05.086Z,73.60
2022-09-12T04:41:16.854Z,72.85
2022-09-12T04:44:19.161Z,72.05
2022-09-12T04:47:22.827Z,72.51
2022-09-12T04:50:25.634Z,72.26
2022-09-12T04:53:28.246Z,73.30
2022-09-12T04:56:31.226Z,73.08
2022-09-12T04:59:33.930Z,72.32
2022-09-12T05:02:36.245Z,72.24
2022-09-12T05:05:38.934Z,72.53
2022-09-12T05:08:41.279Z,72.82
2022-09-12T05:12:04.141Z,72.99
2022-09-12T05:15:07.856Z,73.14
2022-09-12T05:18:10.358Z,73.32
2022-09-12T05:21:15.238Z,72.55
2022-09-12T05:24:17.954Z,72.90
2022-09-12T05:27:20.252Z,71.52
2022-09-12T05:30:22.948Z,70.81
2022-09-12T05:33:25.315Z,69.82
2022-09-12T05:36:29.713Z,69.43
2022-09-12T05:39:32.161Z,68.82
2022-09-12T05:42:35.007Z,68.11
2022-09-12T05:45:37.500Z,67.25
2022-09-12T05:48:42.921Z,67.87
2022-09-12T05:51:45.914Z,66.70
2022-09-12T05:54:48.729Z,66.37
2022-09-12T05:57:51.588Z,66.40
2022-09-12T06:00:54.130Z,66.45
2022-09-12T06:04:00.752Z,65.99
2022-09-12T06:07:03.101Z,65.64
2022-09-12T06:10:06.148Z,65.73
2022-09-12T06:13:08.645Z,65.46
2022-09-12T06:16:14.266Z,65.44
2022-09-12T06:19:19.379Z,64.98
2022-09-12T06:22:22.050Z,65.13
2022-09-12T06:25:24.397Z,64.55
2022-09-12T06:28:27.659Z,64.28
2022-09-12T06:31:33.120Z,64.19
2022-09-12T06:34:36.449Z,64.61
2022-09-12T06:37:38.817Z,63.99
2022-09-12T06:40:46.294Z,63.46
2022-09-12T06:43:48.533Z,63.31
2022-09-12T06:46:51.710Z,62.33
2022-09-12T06:49:54.076Z,61.78
2022-09-12T06:52:56.752Z,61.85
2022-09-12T06:56:01.746Z,61.66
2022-09-12T06:59:05.279Z,61.45
2022-09-12T07:02:09.658Z,61.30
2022-09-12T07:05:15.707Z,61.13
2022-09-12T07:08:18.057Z,60.97
2022-09-12T07:11:23.784Z,59.86
2022-09-12T07:14:26.161Z,59.15
2022-09-12T07:17:29.003Z,58.53
2022-09-12T07:20:33.062Z,58.10
2022-09-12T07:23:35.804Z,57.37
2022-09-12T07:26:40.209Z,56.82
2022-09-12T07:29:44.241Z,55.86
2022-09-12T07:32:46.611Z,54.50
2022-09-12T07:35:49.636Z,54.69
2022-09-12T07:38:58.459Z,53.45
2022-09-12T07:42:01.014Z,53.83
2022-09-12T07:45:03.892Z,54.79
2022-09-12T07:48:06.474Z,55.83
2022-09-12T07:51:10.843Z,55.83
2022-09-12T07:54:13.594Z,56.24
2022-09-12T07:57:15.990Z,55.53
2022-09-12T08:00:19.001Z,54.87
2022-09-12T08:03:21.516Z,53.28
2022-09-12T08:06:25.199Z,52.03
2022-09-12T08:09:27.917Z,50.57
2022-09-12T08:12:32.206Z,50.10
2022-09-12T08:15:35.113Z,50.67
2022-09-12T08:18:37.839Z,49.07
2022-09-12T08:21:40.501Z,50.28
2022-09-12T08:24:43.771Z,49.61
2022-09-12T08:27:46.954Z,49.22
2022-09-12T08:30:49.983Z,50.17
2022-09-12T08:33:54.885Z,49.90
2022-09-12T08:36:57.630Z,49.88
2022-09-12T08:40:00.279Z,50.15
2022-09-12T08:43:19.415Z,48.65
2022-09-12T08:46:27.560Z,48.14
2022-09-12T08:49:52.749Z,47.58
2022-09-12T08:53:10.243Z,47.29
2022-09-12T08:56:13.026Z,47.69
2022-09-12T08:59:15.808Z,45.88
2022-09-12T09:02:54.815Z,39.23
2022-09-12T09:06:30.424Z,37.70
2022-09-12T09:10:09.209Z,38.56
2022-09-12T09:14:03.141Z,40.46
2022-09-12T09:17:15.777Z,42.52
2022-09-12T09:20:31.247Z,44.11
2022-09-12T09:23:42.309Z,44.44
2022-09-12T09:26:49.350Z,43.95
2022-09-12T09:29:55.107Z,45.06
2022-09-12T09:33:01.474Z,45.54
2022-09-12T09:36:25.129Z,45.76
2022-09-12T09:39:51.064Z,43.59
2022-09-12T09:43:03.249Z,45.65
2022-09-12T09:46:07.047Z,46.48
2022-09-12T09:49:14.447Z,44.45
2022-09-12T09:52:25.026Z,44.42
2022-09-12T09:55:34.711Z,45.57
2022-09-12T09:58:37.850Z,44.26
2022-09-12T10:01:57.480Z,44.14
2022-09-12T10:05:00.080Z,44.96
2022-09-12T10:08:04.804Z,46.61
2022-09-12T10:11:19.347Z,44.07
2022-09-12T10:14:40.844Z,44.11
2022-09-12T10:17:46.432Z,45.61
2022-09-12T10:20:48.962Z,46.02
2022-09-12T10:24:00.132Z,45.74
2022-09-12T10:27:16.360Z,45.70
2022-09-12T10:30:21.565Z,47.44
2022-09-12T10:33:26.188Z,48.58
2022-09-12T10:36:37.534Z,48.59
2022-09-12T10:39:40.085Z,48.10
2022-09-12T10:42:50.169Z,46.56
2022-09-12T10:45:57.540Z,46.01
2022-09-12T10:49:23.366Z,52.19
2022-09-12T10:52:27.310Z,43.69
2022-09-12T10:55:34.919Z,45.00
2022-09-12T10:59:16.750Z,44.11
2022-09-12T11:02:31.110Z,47.07
2022-09-12T11:06:03.223Z,45.55
2022-09-12T11:09:19.174Z,45.62
2022-09-12T11:12:32.453Z,46.64
2022-09-12T11:15:58.767Z,45.65
2022-09-12T11:19:26.055Z,46.69
2022-09-12T11:23:11.979Z,45.55
2022-09-12T11:26:38.754Z,45.42
2022-09-12T11:30:06.837Z,46.07
2022-09-12T11:34:06.866Z,46.56
2022-09-12T11:37:29.104Z,47.05
2022-09-12T11:40:55.993Z,47.86
2022-09-12T11:44:14.284Z,47.39
2022-09-12T11:47:18.599Z,47.42
2022-09-12T11:50:29.741Z,46.28
2022-09-12T11:53:38.788Z,45.07
2022-09-12T11:56:45.944Z,44.56
2022-09-12T12:00:00.189Z,45.15
2022-09-12T12:03:12.318Z,44.93
2022-09-12T12:06:21.291Z,45.37
2022-09-12T12:09:24.345Z,46.67
2022-09-12T12:12:29.065Z,47.14
2022-09-12T12:15:31.901Z,47.44
2022-09-12T12:18:38.056Z,47.19
2022-09-12T12:21:48.195Z,46.59
2022-09-12T12:25:08.676Z,46.21
2022-09-12T12:28:11.148Z,45.08
2022-09-12T12:31:13.894Z,45.66
2022-09-12T12:34:26.880Z,44.47
2022-09-12T12:37:29.877Z,44.23
2022-09-12T12:40:32.792Z,44.42
2022-09-12T12:43:35.316Z,44.55
2022-09-12T12:46:38.529Z,43.48
2022-09-12T12:49:41.774Z,43.82
2022-09-12T12:52:54.183Z,44.80
2022-09-12T12:55:57.588Z,43.83
2022-09-12T12:59:02.792Z,43.72
2022-09-12T13:02:05.587Z,43.76
2022-09-12T13:05:30.673Z,43.62
2022-09-12T13:08:38.742Z,44.60
2022-09-12T13:11:41.561Z,43.65
2022-09-12T13:14:46.968Z,44.42
2022-09-12T13:17:49.350Z,44.34
2022-09-12T13:21:11.156Z,45.06
2022-09-12T13:24:16.136Z,44.07
2022-09-12T13:27:23.825Z,43.68
2022-09-12T13:30:28.561Z,42.32
2022-09-12T13:33:35.909Z,42.89
2022-09-12T13:36:53.403Z,43.18
2022-09-12T13:40:17.846Z,43.25
2022-09-12T13:43:31.543Z,43.82
2022-09-12T13:46:34.439Z,42.95
2022-09-12T13:49:40.126Z,41.84
2022-09-12T13:52:48.814Z,42.21
2022-09-12T13:55:55.796Z,41.85
2022-09-12T13:59:00.937Z,42.76
2022-09-12T14:02:20.235Z,42.73
2022-09-12T14:05:25.982Z,43.13
2022-09-12T14:08:28.303Z,44.38
2022-09-12T14:11:33.850Z,42.12
2022-09-12T14:14:43.801Z,41.29
2022-09-12T14:17:52.132Z,42.80
2022-09-12T14:20:57.342Z,42.42
2022-09-12T14:24:00.788Z,42.81
2022-09-12T14:27:04.618Z,42.60
2022-09-12T14:30:20.263Z,42.81
2022-09-12T14:33:22.680Z,42.37
2022-09-12T14:36:30.763Z,42.13
2022-09-12T14:39:45.494Z,40.23
2022-09-12T14:42:50.198Z,39.48
2022-09-12T14:45:56.132Z,40.02
2022-09-12T14:49:07.960Z,39.10
2022-09-12T14:52:33.044Z,37.98
2022-09-12T14:55:44.562Z,38.11
2022-09-12T14:58:46.866Z,38.40
2022-09-12T15:01:49.547Z,37.73
2022-09-12T15:04:53.421Z,37.65
2022-09-12T15:08:01.383Z,38.32
2022-09-12T15:11:06.956Z,38.84
2022-09-12T15:14:13.708Z,38.81
2022-09-12T15:17:16.020Z,39.15
2022-09-12T15:20:18.698Z,39.35
2022-09-12T15:23:33.083Z,39.16
2022-09-12T15:26:35.784Z,37.89
2022-09-12T15:29:38.993Z,37.67
2022-09-12T15:32:43.782Z,37.82
2022-09-12T15:35:46.670Z,37.36
2022-09-12T15:38:49.961Z,37.50
2022-09-12T15:41:52.532Z,37.35
